首页
METAR-TAF:

METAR-TAF

机场 :

奧斯汀, 得克萨斯州, 美国

纬度: 30-24-00N, 经度: 097-34-25W, 海拔: 189米

当前天气观测

该预报发布于34分钟前的02:15 UTC
风速3节,风向东转东南
温度 14°C
湿度 94%
气压 1013 hPa
能見度: 0.8公里
阴天层高于300英尺

METAR: KEDC 230215Z AUTO 12003KT 1/2SM FG OVC003 14/13 A2992 RMK AO2

时间: 19:49 (02:49 UTC)


TAF: 丢失

超过4000个机场的气象观测和天气预报(METAR&TAF报告)。

可查询的气象台以黄色和红色小点在地图上表示。

将鼠标移到小点上方,可查看气象台名称。

然后点击查看天气观测和预报。

如需切换地图:点击带黑十字的绿色按钮放大地图;点击带横线的绿色按钮缩小地图;或者点击绿色箭头查看邻近地区的地图。


METAR-TAF: